createdAt,value
2022-07-28T00:01:43.607Z,13.45
2022-07-28T00:06:48.783Z,11.80
2022-07-28T00:11:54.949Z,14.40
2022-07-28T00:16:59.825Z,21.92
2022-07-28T00:22:06.438Z,17.60
2022-07-28T00:27:10.228Z,17.48
2022-07-28T00:32:14.095Z,11.52
2022-07-28T00:37:20.553Z,14.98
2022-07-28T00:42:24.627Z,14.77
2022-07-28T00:47:33.773Z,18.10
2022-07-28T00:52:39.592Z,10.82
2022-07-28T00:57:43.531Z,11.45
2022-07-28T01:02:47.519Z,10.52
2022-07-28T01:08:02.119Z,15.30
2022-07-28T01:13:15.414Z,11.32
2022-07-28T01:18:22.263Z,17.67
2022-07-28T01:23:56.569Z,10.20
2022-07-28T01:29:10.792Z,12.52
2022-07-28T01:34:21.343Z,12.30
2022-07-28T01:39:30.429Z,13.55
2022-07-28T01:44:39.307Z,12.20
2022-07-28T01:49:46.742Z,16.17
2022-07-28T01:54:52.214Z,14.32
2022-07-28T01:59:58.123Z,13.23
2022-07-28T02:10:11.058Z,12.18
2022-07-28T02:15:16.450Z,9.48
2022-07-28T02:20:22.254Z,7.47
2022-07-28T02:25:31.122Z,7.55
2022-07-28T02:30:39.698Z,8.20
2022-07-28T02:35:50.646Z,7.20
2022-07-28T02:40:57.635Z,11.82
2022-07-28T02:46:07.172Z,8.10
2022-07-28T02:51:14.972Z,6.13
2022-07-28T02:56:19.265Z,5.78
2022-07-28T03:01:24.907Z,7.57
2022-07-28T03:06:30.611Z,7.63
2022-07-28T03:11:34.516Z,7.43
2022-07-28T03:16:38.394Z,7.75
2022-07-28T03:21:43.641Z,9.50
2022-07-28T03:26:53.993Z,8.50
2022-07-28T03:31:59.829Z,6.25
2022-07-28T03:37:12.929Z,4.57
2022-07-28T03:42:19.097Z,6.18
2022-07-28T03:47:24.113Z,8.13
2022-07-28T03:52:29.328Z,7.50
2022-07-28T03:57:33.070Z,6.68
2022-07-28T04:02:36.996Z,4.95
2022-07-28T04:07:43.077Z,8.52
2022-07-28T04:12:51.691Z,7.25
2022-07-28T04:17:57.428Z,7.80
2022-07-28T04:23:02.730Z,8.05
2022-07-28T04:28:06.684Z,6.72
2022-07-28T04:33:12.979Z,7.13
2022-07-28T04:38:18.261Z,14.18
2022-07-28T04:43:23.487Z,6.65
2022-07-28T04:48:27.872Z,9.10
2022-07-28T04:53:33.122Z,5.97
2022-07-28T04:58:37.131Z,7.40
2022-07-28T05:03:40.888Z,6.60
2022-07-28T05:08:46.051Z,8.15
2022-07-28T05:13:49.867Z,8.98
2022-07-28T05:18:53.821Z,5.03
2022-07-28T05:23:58.912Z,4.82
2022-07-28T05:29:03.250Z,6.30
2022-07-28T05:34:07.253Z,5.82
2022-07-28T05:39:12.676Z,8.77
2022-07-28T05:44:18.368Z,7.18
2022-07-28T05:49:23.923Z,7.20
2022-07-28T05:54:29.428Z,8.07
2022-07-28T05:59:33.663Z,4.68
2022-07-28T06:04:37.534Z,5.35
2022-07-28T06:09:45.230Z,6.72
2022-07-28T06:14:49.097Z,9.15
2022-07-28T06:19:53.115Z,7.57
2022-07-28T06:24:58.224Z,6.97
2022-07-28T06:30:02.056Z,14.98
2022-07-28T06:35:09.524Z,10.18
2022-07-28T06:40:18.865Z,11.43
2022-07-28T06:45:26.005Z,7.53
2022-07-28T06:50:33.521Z,6.60
2022-07-28T06:55:42.121Z,4.75
2022-07-28T07:00:56.256Z,5.93
2022-07-28T07:06:01.032Z,7.93
2022-07-28T07:11:06.589Z,6.63
2022-07-28T07:21:14.246Z,5.28
2022-07-28T07:26:19.396Z,5.13
2022-07-28T07:31:23.235Z,14.73
2022-07-28T07:36:26.980Z,3.72
2022-07-28T07:41:32.169Z,6.35
2022-07-28T07:46:37.260Z,6.55
2022-07-28T07:51:41.138Z,4.53
2022-07-28T07:56:46.224Z,4.03
2022-07-28T08:01:54.624Z,12.32
2022-07-28T08:06:58.379Z,4.22
2022-07-28T08:12:04.129Z,5.05
2022-07-28T08:17:07.861Z,6.28
2022-07-28T08:22:11.676Z,3.58
2022-07-28T08:27:17.061Z,5.30
2022-07-28T08:32:20.917Z,6.93
2022-07-28T08:37:24.605Z,3.00
2022-07-28T08:42:38.525Z,5.47
2022-07-28T08:48:07.292Z,4.65
2022-07-28T08:53:09.015Z,13.70
2022-07-28T08:58:14.522Z,4.43
2022-07-28T09:03:18.554Z,4.00
2022-07-28T09:08:22.537Z,8.50
2022-07-28T09:13:27.682Z,11.65
2022-07-28T09:18:31.514Z,7.63
2022-07-28T09:23:46.177Z,5.30
2022-07-28T09:28:55.648Z,5.90
2022-07-28T09:34:03.993Z,8.40
2022-07-28T09:39:08.239Z,4.30
2022-07-28T09:44:19.574Z,6.37
2022-07-28T09:49:28.493Z,6.28
2022-07-28T09:54:36.141Z,6.07
2022-07-28T09:59:47.101Z,8.40
2022-07-28T10:04:57.646Z,7.43
2022-07-28T10:10:03.976Z,6.25
2022-07-28T10:15:30.878Z,4.35
2022-07-28T10:20:35.511Z,6.93
2022-07-28T10:25:42.136Z,12.38
2022-07-28T10:30:50.284Z,4.32
2022-07-28T10:35:55.691Z,9.38
2022-07-28T10:41:02.693Z,6.13
2022-07-28T10:46:11.835Z,10.85
2022-07-28T10:51:21.975Z,5.18
2022-07-28T10:56:42.620Z,4.90
2022-07-28T11:01:49.725Z,5.00
2022-07-28T11:07:10.951Z,3.22
2022-07-28T11:12:15.529Z,7.57
2022-07-28T11:17:24.390Z,4.57
2022-07-28T11:22:36.609Z,5.30
2022-07-28T11:28:05.030Z,3.50
2022-07-28T11:33:11.132Z,3.33
2022-07-28T11:38:16.056Z,5.65
2022-07-28T11:43:37.720Z,4.93
2022-07-28T11:48:45.645Z,4.73
2022-07-28T11:53:51.126Z,4.43
2022-07-28T11:58:58.684Z,2.97
2022-07-28T12:04:13.283Z,5.22
2022-07-28T12:09:21.915Z,4.95
2022-07-28T12:14:30.353Z,3.67
2022-07-28T12:19:35.465Z,7.50
2022-07-28T12:24:45.611Z,5.10
2022-07-28T12:29:58.876Z,3.72
2022-07-28T12:35:04.454Z,3.05
2022-07-28T12:40:10.866Z,4.85
2022-07-28T12:45:14.779Z,5.38
2022-07-28T12:50:20.909Z,3.07
2022-07-28T12:55:27.888Z,4.38
2022-07-28T13:00:34.218Z,5.90
2022-07-28T13:05:57.910Z,4.25
2022-07-28T13:11:01.778Z,4.32
2022-07-28T13:16:12.434Z,3.55
2022-07-28T13:21:17.580Z,3.38
2022-07-28T13:26:21.369Z,3.33
2022-07-28T13:31:25.178Z,4.35
2022-07-28T13:36:30.443Z,3.65
2022-07-28T13:41:57.583Z,3.35
2022-07-28T13:46:59.611Z,5.93
2022-07-28T13:52:06.903Z,5.47
2022-07-28T13:57:17.250Z,3.50
2022-07-28T14:02:21.628Z,3.45
2022-07-28T14:07:31.275Z,2.55
2022-07-28T14:12:37.439Z,4.28
2022-07-28T14:17:43.291Z,3.50
2022-07-28T14:22:50.467Z,3.28
2022-07-28T14:27:55.742Z,3.15
2022-07-28T14:32:59.548Z,5.13
2022-07-28T14:38:51.185Z,4.75
2022-07-28T14:43:32.627Z,4.40
2022-07-28T14:48:36.473Z,3.70
2022-07-28T14:53:50.057Z,3.00
2022-07-28T14:58:55.891Z,4.57
2022-07-28T15:03:59.812Z,8.47
2022-07-28T15:09:06.759Z,4.23
2022-07-28T15:14:10.372Z,9.65
2022-07-28T15:19:14.130Z,3.28
2022-07-28T15:24:19.445Z,3.83
2022-07-28T15:29:23.729Z,4.20
2022-07-28T15:39:32.558Z,3.38
2022-07-28T15:44:37.445Z,2.90
2022-07-28T15:49:41.661Z,4.00
2022-07-28T15:54:46.848Z,3.78
2022-07-28T15:59:50.955Z,5.53
2022-07-28T16:04:54.925Z,7.57
2022-07-28T16:10:00.081Z,10.63
2022-07-28T16:15:03.988Z,4.70
2022-07-28T16:20:10.238Z,5.85
2022-07-28T16:25:17.720Z,3.85
2022-07-28T16:30:21.724Z,7.13
2022-07-28T16:35:25.946Z,7.88
2022-07-28T16:40:32.641Z,6.63
2022-07-28T16:45:38.357Z,7.40
2022-07-28T16:50:43.397Z,6.38
2022-07-28T16:55:49.081Z,4.72
2022-07-28T17:00:53.045Z,4.10
2022-07-28T17:05:57.138Z,3.97
2022-07-28T17:11:02.815Z,6.37
2022-07-28T17:16:07.336Z,6.93
2022-07-28T17:21:13.229Z,6.35
2022-07-28T17:31:43.539Z,17.52
2022-07-28T17:36:48.411Z,5.53
2022-07-28T17:41:54.739Z,11.85
2022-07-28T17:46:59.223Z,8.93
2022-07-28T17:52:05.120Z,10.85
2022-07-28T17:57:10.431Z,7.57
2022-07-28T18:02:15.280Z,4.90
2022-07-28T18:12:24.957Z,6.65
2022-07-28T18:17:33.033Z,5.97
2022-07-28T18:22:36.845Z,9.10
2022-07-28T18:27:41.903Z,7.07
2022-07-28T18:37:50.371Z,5.93
2022-07-28T18:42:55.942Z,5.50
2022-07-28T18:48:00.536Z,9.27
2022-07-28T18:53:04.466Z,11.57
2022-07-28T18:58:10.595Z,7.97
2022-07-28T19:03:14.604Z,6.90
2022-07-28T19:08:18.576Z,8.75
2022-07-28T19:13:23.710Z,5.88
2022-07-28T19:18:27.439Z,8.18
2022-07-28T19:23:31.412Z,8.02
2022-07-28T19:28:36.572Z,11.25
2022-07-28T19:33:44.069Z,48.47
2022-07-28T19:38:47.997Z,62.22
2022-07-28T19:43:53.436Z,49.60
2022-07-28T19:48:57.403Z,29.92
2022-07-28T19:54:01.277Z,27.92
2022-07-28T19:59:07.716Z,22.70
2022-07-28T20:04:11.705Z,17.55
2022-07-28T20:09:16.773Z,15.48
2022-07-28T20:14:21.904Z,12.25
2022-07-28T20:19:25.684Z,23.35
2022-07-28T20:24:29.673Z,12.30
2022-07-28T20:29:34.947Z,13.77
2022-07-28T20:34:38.610Z,16.60
2022-07-28T20:39:45.239Z,18.92
2022-07-28T20:44:51.421Z,18.25
2022-07-28T20:49:55.676Z,10.23
2022-07-28T20:54:59.399Z,12.07
2022-07-28T21:00:07.242Z,19.35
2022-07-28T21:05:20.183Z,15.93
2022-07-28T21:10:30.541Z,13.30
2022-07-28T21:15:35.622Z,17.67
2022-07-28T21:20:39.339Z,11.70
2022-07-28T21:25:45.239Z,17.40
2022-07-28T21:30:50.283Z,12.05
2022-07-28T21:35:53.884Z,9.73
2022-07-28T21:40:58.270Z,9.77
2022-07-28T21:46:03.489Z,11.45
2022-07-28T21:56:22.685Z,7.57
2022-07-28T22:01:28.332Z,14.27
2022-07-28T22:06:32.252Z,8.48
2022-07-28T22:11:35.971Z,7.80
2022-07-28T22:16:41.110Z,9.45
2022-07-28T22:21:44.749Z,7.82
2022-07-28T22:26:52.422Z,10.57
2022-07-28T22:31:59.392Z,9.43
2022-07-28T22:37:11.192Z,8.25
2022-07-28T22:42:16.899Z,10.85
2022-07-28T22:47:22.004Z,9.73
2022-07-28T22:52:26.872Z,12.45
2022-07-28T22:57:30.558Z,8.97
2022-07-28T23:02:35.803Z,7.63
2022-07-28T23:07:52.967Z,8.27
2022-07-28T23:13:01.305Z,8.85
2022-07-28T23:18:06.413Z,8.35
2022-07-28T23:23:10.639Z,8.73
2022-07-28T23:28:14.349Z,8.45
2022-07-28T23:33:55.945Z,9.40
2022-07-28T23:38:43.508Z,12.67
2022-07-28T23:43:51.074Z,9.68
2022-07-28T23:48:56.264Z,6.80
2022-07-28T23:54:00.075Z,8.50
2022-07-28T23:59:03.718Z,12.18
